Terminal Aerodrome Forecast
Issued by NWS

Home | Current Version | Previous Version | Text Only | Print | Product List | Glossary On
Versions: 1 2 3 4 5 6 7 8 9 10 11 12 13 14 15 16 17
000
FTUS43 KDTX 160500
TAFDET
TAF
KDET 160539Z 1606/1706 30006KT P6SM SCT008 OVC050
      TEMPO 1607/1611 BKN008
     FM161100 34005KT P6SM SCT015
     FM161400 34007KT P6SM SCT025
     FM161600 29008KT P6SM BKN040
     FM162200 26006KT P6SM SCT050
     FM170200 26003KT P6SM SKC=

USA.gov is the U.S. government's official web portal to all federal, state and local government web resources and services.